KHSP/HSP METAR and TAF weather

Enter ICAO airport designator
Station Type Date Time Source
KHSP METAR 2021/10/24 21:35 UTC NOAA

KHSP 242135Z AUTO 16009KT 10SM CLR 16/11 A3013 RMK AO2 T01570110


Station Type Date Time Source
KHSP Decoded METAR 2021/10/24 21:35 UTC NOAA

Hot Springs / Ingalls, VA, United States (KHSP) 37-57N 079-50W
Oct 24, 2021 - 05:35 PM EDT / 2021.10.24 2135 UTC
Wind: from the SSE (160 degrees) at 10 MPH (9 KT):0
Visibility: 10 mile(s):0
Sky conditions: clear
Temperature: 60.3 F (15.7 C)
Dew Point: 51.8 F (11.0 C)
Relative Humidity: 73%
Pressure (altimeter): 30.13 in. Hg (1020 hPa)
ob: KHSP 242135Z AUTO 16009KT 10SM CLR 16/11 A3013 RMK AO2 T01570110
cycle: 21

Station Type Date Time Source
KHSP TAF UTC NOAA

Error!

Example: see airport list